sensor_id;sensor_type;location;lat;lon;timestamp;P1;durP1;ratioP1;P2;durP2;ratioP2
25091;SDS011;13082;52.374;4.946;2022-08-21T00:00:35;5.80;;;2.50;;
25091;SDS011;13082;52.374;4.946;2022-08-21T00:03:04;4.20;;;2.43;;
25091;SDS011;13082;52.374;4.946;2022-08-21T00:05:32;8.20;;;2.73;;
25091;SDS011;13082;52.374;4.946;2022-08-21T00:08:02;5.63;;;2.72;;
25091;SDS011;13082;52.374;4.946;2022-08-21T00:10:28;5.63;;;2.63;;
25091;SDS011;13082;52.374;4.946;2022-08-21T00:12:54;4.80;;;2.60;;
25091;SDS011;13082;52.374;4.946;2022-08-21T00:15:22;6.07;;;3.07;;
25091;SDS011;13082;52.374;4.946;2022-08-21T00:17:51;8.73;;;3.03;;
25091;SDS011;13082;52.374;4.946;2022-08-21T00:20:18;8.40;;;3.10;;
25091;SDS011;13082;52.374;4.946;2022-08-21T00:22:44;6.00;;;2.87;;
25091;SDS011;13082;52.374;4.946;2022-08-21T00:25:11;9.77;;;3.13;;
25091;SDS011;13082;52.374;4.946;2022-08-21T00:27:37;5.67;;;2.73;;
25091;SDS011;13082;52.374;4.946;2022-08-21T00:30:04;4.63;;;3.17;;
25091;SDS011;13082;52.374;4.946;2022-08-21T00:32:31;6.27;;;3.07;;
25091;SDS011;13082;52.374;4.946;2022-08-21T00:34:56;5.20;;;2.93;;
25091;SDS011;13082;52.374;4.946;2022-08-21T00:37:23;7.00;;;3.50;;
25091;SDS011;13082;52.374;4.946;2022-08-21T00:39:48;8.37;;;3.33;;
25091;SDS011;13082;52.374;4.946;2022-08-21T00:42:15;6.03;;;3.37;;
25091;SDS011;13082;52.374;4.946;2022-08-21T00:44:42;9.07;;;3.70;;
25091;SDS011;13082;52.374;4.946;2022-08-21T00:47:09;5.23;;;3.03;;
25091;SDS011;13082;52.374;4.946;2022-08-21T00:49:35;5.83;;;3.80;;
25091;SDS011;13082;52.374;4.946;2022-08-21T00:52:02;7.93;;;3.20;;
25091;SDS011;13082;52.374;4.946;2022-08-21T00:54:30;5.07;;;3.13;;
25091;SDS011;13082;52.374;4.946;2022-08-21T00:56:59;7.80;;;4.20;;
25091;SDS011;13082;52.374;4.946;2022-08-21T00:59:30;7.17;;;3.70;;
25091;SDS011;13082;52.374;4.946;2022-08-21T01:01:59;7.80;;;3.60;;
25091;SDS011;13082;52.374;4.946;2022-08-21T01:04:25;7.90;;;3.37;;
25091;SDS011;13082;52.374;4.946;2022-08-21T01:06:51;7.87;;;3.93;;
25091;SDS011;13082;52.374;4.946;2022-08-21T01:09:17;8.00;;;3.40;;
25091;SDS011;13082;52.374;4.946;2022-08-21T01:11:43;5.73;;;3.30;;
25091;SDS011;13082;52.374;4.946;2022-08-21T01:14:10;8.57;;;3.63;;
25091;SDS011;13082;52.374;4.946;2022-08-21T01:16:38;6.00;;;3.07;;
25091;SDS011;13082;52.374;4.946;2022-08-21T01:19:06;6.80;;;3.77;;
25091;SDS011;13082;52.374;4.946;2022-08-21T01:21:33;5.13;;;3.03;;
25091;SDS011;13082;52.374;4.946;2022-08-21T01:23:58;8.70;;;3.10;;
25091;SDS011;13082;52.374;4.946;2022-08-21T01:26:26;4.87;;;3.07;;
25091;SDS011;13082;52.374;4.946;2022-08-21T01:28:58;8.30;;;3.43;;
25091;SDS011;13082;52.374;4.946;2022-08-21T01:31:28;6.97;;;3.43;;
25091;SDS011;13082;52.374;4.946;2022-08-21T01:33:56;6.63;;;3.40;;
25091;SDS011;13082;52.374;4.946;2022-08-21T01:36:22;5.30;;;3.30;;
25091;SDS011;13082;52.374;4.946;2022-08-21T01:38:48;7.23;;;3.57;;
25091;SDS011;13082;52.374;4.946;2022-08-21T01:41:14;6.97;;;3.40;;
25091;SDS011;13082;52.374;4.946;2022-08-21T01:43:40;7.80;;;3.43;;
25091;SDS011;13082;52.374;4.946;2022-08-21T01:46:07;10.50;;;3.23;;
25091;SDS011;13082;52.374;4.946;2022-08-21T01:48:33;9.37;;;2.80;;
25091;SDS011;13082;52.374;4.946;2022-08-21T01:50:59;7.23;;;3.50;;
25091;SDS011;13082;52.374;4.946;2022-08-21T01:53:25;8.93;;;4.03;;
25091;SDS011;13082;52.374;4.946;2022-08-21T01:55:51;8.83;;;3.43;;
25091;SDS011;13082;52.374;4.946;2022-08-21T01:58:16;7.47;;;3.50;;
25091;SDS011;13082;52.374;4.946;2022-08-21T02:00:42;8.03;;;3.53;;
25091;SDS011;13082;52.374;4.946;2022-08-21T02:03:08;5.77;;;3.13;;
25091;SDS011;13082;52.374;4.946;2022-08-21T02:05:33;11.73;;;3.43;;
25091;SDS011;13082;52.374;4.946;2022-08-21T02:07:59;6.50;;;3.30;;
25091;SDS011;13082;52.374;4.946;2022-08-21T02:10:26;9.13;;;3.60;;
25091;SDS011;13082;52.374;4.946;2022-08-21T02:12:54;6.30;;;3.40;;
25091;SDS011;13082;52.374;4.946;2022-08-21T02:15:21;11.03;;;4.00;;
25091;SDS011;13082;52.374;4.946;2022-08-21T02:17:48;4.37;;;3.23;;
25091;SDS011;13082;52.374;4.946;2022-08-21T02:20:23;9.07;;;3.23;;
25091;SDS011;13082;52.374;4.946;2022-08-21T02:22:51;9.53;;;3.83;;
25091;SDS011;13082;52.374;4.946;2022-08-21T02:25:17;9.00;;;3.80;;
25091;SDS011;13082;52.374;4.946;2022-08-21T02:27:44;6.90;;;3.53;;
25091;SDS011;13082;52.374;4.946;2022-08-21T02:30:17;6.57;;;3.53;;
25091;SDS011;13082;52.374;4.946;2022-08-21T02:32:44;8.60;;;3.80;;
25091;SDS011;13082;52.374;4.946;2022-08-21T02:35:10;7.50;;;3.87;;
25091;SDS011;13082;52.374;4.946;2022-08-21T02:37:50;8.00;;;3.50;;
25091;SDS011;13082;52.374;4.946;2022-08-21T02:40:19;5.60;;;3.50;;
25091;SDS011;13082;52.374;4.946;2022-08-21T02:42:47;10.30;;;3.53;;
25091;SDS011;13082;52.374;4.946;2022-08-21T02:45:13;8.03;;;4.17;;
25091;SDS011;13082;52.374;4.946;2022-08-21T02:47:40;10.37;;;3.90;;
25091;SDS011;13082;52.374;4.946;2022-08-21T02:50:12;9.50;;;3.80;;
25091;SDS011;13082;52.374;4.946;2022-08-21T02:52:37;9.20;;;3.83;;
25091;SDS011;13082;52.374;4.946;2022-08-21T02:55:03;6.40;;;3.80;;
25091;SDS011;13082;52.374;4.946;2022-08-21T02:57:29;8.67;;;4.10;;
25091;SDS011;13082;52.374;4.946;2022-08-21T02:59:57;10.13;;;4.13;;
25091;SDS011;13082;52.374;4.946;2022-08-21T03:02:23;8.83;;;4.17;;
25091;SDS011;13082;52.374;4.946;2022-08-21T03:04:48;10.73;;;4.37;;
25091;SDS011;13082;52.374;4.946;2022-08-21T03:07:14;7.50;;;3.90;;
25091;SDS011;13082;52.374;4.946;2022-08-21T03:09:40;8.27;;;3.90;;
25091;SDS011;13082;52.374;4.946;2022-08-21T03:12:05;10.77;;;4.30;;
25091;SDS011;13082;52.374;4.946;2022-08-21T03:14:31;10.67;;;4.83;;
25091;SDS011;13082;52.374;4.946;2022-08-21T03:16:57;6.33;;;3.80;;
25091;SDS011;13082;52.374;4.946;2022-08-21T03:19:22;12.50;;;4.10;;
25091;SDS011;13082;52.374;4.946;2022-08-21T03:21:48;7.27;;;3.93;;
25091;SDS011;13082;52.374;4.946;2022-08-21T03:24:14;11.23;;;5.13;;
25091;SDS011;13082;52.374;4.946;2022-08-21T03:26:39;9.97;;;4.00;;
25091;SDS011;13082;52.374;4.946;2022-08-21T03:29:05;7.77;;;3.53;;
25091;SDS011;13082;52.374;4.946;2022-08-21T03:31:32;14.40;;;4.37;;
25091;SDS011;13082;52.374;4.946;2022-08-21T03:33:58;8.90;;;3.67;;
25091;SDS011;13082;52.374;4.946;2022-08-21T03:36:24;7.50;;;3.97;;
25091;SDS011;13082;52.374;4.946;2022-08-21T03:38:50;7.37;;;4.07;;
25091;SDS011;13082;52.374;4.946;2022-08-21T03:41:16;8.70;;;4.13;;
25091;SDS011;13082;52.374;4.946;2022-08-21T03:43:41;9.90;;;4.33;;
25091;SDS011;13082;52.374;4.946;2022-08-21T03:46:07;6.30;;;3.87;;
25091;SDS011;13082;52.374;4.946;2022-08-21T03:48:34;12.03;;;4.37;;
25091;SDS011;13082;52.374;4.946;2022-08-21T03:51:00;8.33;;;4.27;;
25091;SDS011;13082;52.374;4.946;2022-08-21T03:53:27;10.20;;;4.33;;
25091;SDS011;13082;52.374;4.946;2022-08-21T03:55:52;8.87;;;3.70;;
25091;SDS011;13082;52.374;4.946;2022-08-21T03:58:20;6.37;;;4.57;;
25091;SDS011;13082;52.374;4.946;2022-08-21T04:00:50;18.03;;;4.67;;
25091;SDS011;13082;52.374;4.946;2022-08-21T04:03:19;8.93;;;4.87;;
25091;SDS011;13082;52.374;4.946;2022-08-21T04:05:45;10.13;;;4.03;;
25091;SDS011;13082;52.374;4.946;2022-08-21T04:08:11;8.73;;;3.90;;
25091;SDS011;13082;52.374;4.946;2022-08-21T04:10:37;7.37;;;4.00;;
25091;SDS011;13082;52.374;4.946;2022-08-21T04:13:05;6.60;;;3.93;;
25091;SDS011;13082;52.374;4.946;2022-08-21T04:15:32;8.47;;;3.93;;
25091;SDS011;13082;52.374;4.946;2022-08-21T04:17:58;6.97;;;3.67;;
25091;SDS011;13082;52.374;4.946;2022-08-21T04:20:24;7.13;;;5.27;;
25091;SDS011;13082;52.374;4.946;2022-08-21T04:22:50;6.33;;;3.77;;
25091;SDS011;13082;52.374;4.946;2022-08-21T04:25:17;12.33;;;4.00;;
25091;SDS011;13082;52.374;4.946;2022-08-21T04:27:44;5.63;;;4.30;;
25091;SDS011;13082;52.374;4.946;2022-08-21T04:30:10;8.17;;;3.97;;
25091;SDS011;13082;52.374;4.946;2022-08-21T04:32:38;5.30;;;3.83;;
25091;SDS011;13082;52.374;4.946;2022-08-21T04:35:08;7.90;;;4.13;;
25091;SDS011;13082;52.374;4.946;2022-08-21T04:37:35;14.20;;;3.90;;
25091;SDS011;13082;52.374;4.946;2022-08-21T04:40:00;16.30;;;4.27;;
25091;SDS011;13082;52.374;4.946;2022-08-21T04:42:27;7.47;;;3.80;;
25091;SDS011;13082;52.374;4.946;2022-08-21T04:44:53;7.43;;;3.70;;
25091;SDS011;13082;52.374;4.946;2022-08-21T04:47:20;4.63;;;3.23;;
25091;SDS011;13082;52.374;4.946;2022-08-21T04:49:46;9.33;;;3.80;;
25091;SDS011;13082;52.374;4.946;2022-08-21T04:52:12;9.30;;;3.87;;
25091;SDS011;13082;52.374;4.946;2022-08-21T04:54:41;5.97;;;3.30;;
25091;SDS011;13082;52.374;4.946;2022-08-21T04:57:08;9.03;;;3.83;;
25091;SDS011;13082;52.374;4.946;2022-08-21T04:59:40;6.03;;;3.40;;
25091;SDS011;13082;52.374;4.946;2022-08-21T05:02:09;7.50;;;3.50;;
25091;SDS011;13082;52.374;4.946;2022-08-21T05:04:37;6.67;;;3.50;;
25091;SDS011;13082;52.374;4.946;2022-08-21T05:07:10;8.07;;;4.00;;
25091;SDS011;13082;52.374;4.946;2022-08-21T05:09:39;4.37;;;3.10;;
25091;SDS011;13082;52.374;4.946;2022-08-21T05:12:05;9.87;;;3.60;;
25091;SDS011;13082;52.374;4.946;2022-08-21T05:14:30;5.57;;;3.63;;
25091;SDS011;13082;52.374;4.946;2022-08-21T05:16:56;7.00;;;2.93;;
25091;SDS011;13082;52.374;4.946;2022-08-21T05:19:22;8.53;;;3.23;;
25091;SDS011;13082;52.374;4.946;2022-08-21T05:21:48;5.77;;;3.43;;
25091;SDS011;13082;52.374;4.946;2022-08-21T05:24:14;4.00;;;2.73;;
25091;SDS011;13082;52.374;4.946;2022-08-21T05:26:40;9.20;;;4.90;;
25091;SDS011;13082;52.374;4.946;2022-08-21T05:29:06;6.07;;;3.13;;
25091;SDS011;13082;52.374;4.946;2022-08-21T05:31:32;9.57;;;3.80;;
25091;SDS011;13082;52.374;4.946;2022-08-21T05:33:58;9.07;;;3.57;;
25091;SDS011;13082;52.374;4.946;2022-08-21T05:36:23;6.97;;;3.37;;
25091;SDS011;13082;52.374;4.946;2022-08-21T05:38:49;11.70;;;3.40;;
25091;SDS011;13082;52.374;4.946;2022-08-21T05:41:15;5.53;;;3.07;;
25091;SDS011;13082;52.374;4.946;2022-08-21T05:43:41;5.97;;;3.30;;
25091;SDS011;13082;52.374;4.946;2022-08-21T05:46:07;6.87;;;3.80;;
25091;SDS011;13082;52.374;4.946;2022-08-21T05:48:33;8.70;;;4.03;;
25091;SDS011;13082;52.374;4.946;2022-08-21T05:51:18;8.43;;;4.07;;
25091;SDS011;13082;52.374;4.946;2022-08-21T05:53:44;5.47;;;3.10;;
25091;SDS011;13082;52.374;4.946;2022-08-21T05:56:10;8.10;;;3.80;;
25091;SDS011;13082;52.374;4.946;2022-08-21T05:58:37;9.77;;;3.20;;
25091;SDS011;13082;52.374;4.946;2022-08-21T06:01:03;11.47;;;3.67;;
25091;SDS011;13082;52.374;4.946;2022-08-21T06:03:31;8.70;;;3.67;;
25091;SDS011;13082;52.374;4.946;2022-08-21T06:05:59;7.07;;;3.60;;
25091;SDS011;13082;52.374;4.946;2022-08-21T06:08:25;7.03;;;3.17;;
25091;SDS011;13082;52.374;4.946;2022-08-21T06:10:52;8.23;;;3.70;;
25091;SDS011;13082;52.374;4.946;2022-08-21T06:13:20;10.47;;;3.87;;
25091;SDS011;13082;52.374;4.946;2022-08-21T06:15:46;11.10;;;3.13;;
25091;SDS011;13082;52.374;4.946;2022-08-21T06:18:12;8.67;;;2.80;;
25091;SDS011;13082;52.374;4.946;2022-08-21T06:20:38;4.93;;;2.90;;
25091;SDS011;13082;52.374;4.946;2022-08-21T06:23:05;5.77;;;3.17;;
25091;SDS011;13082;52.374;4.946;2022-08-21T06:25:31;8.73;;;3.40;;
25091;SDS011;13082;52.374;4.946;2022-08-21T06:28:00;4.00;;;2.60;;
25091;SDS011;13082;52.374;4.946;2022-08-21T06:30:30;5.93;;;3.27;;
25091;SDS011;13082;52.374;4.946;2022-08-21T06:32:56;7.70;;;3.77;;
25091;SDS011;13082;52.374;4.946;2022-08-21T06:35:22;10.43;;;3.00;;
25091;SDS011;13082;52.374;4.946;2022-08-21T06:37:49;10.30;;;3.33;;
25091;SDS011;13082;52.374;4.946;2022-08-21T06:40:15;8.67;;;3.30;;
25091;SDS011;13082;52.374;4.946;2022-08-21T06:42:40;5.93;;;2.97;;
25091;SDS011;13082;52.374;4.946;2022-08-21T06:45:06;10.67;;;3.17;;
25091;SDS011;13082;52.374;4.946;2022-08-21T06:47:32;8.57;;;3.67;;
25091;SDS011;13082;52.374;4.946;2022-08-21T06:49:57;8.67;;;3.70;;
25091;SDS011;13082;52.374;4.946;2022-08-21T06:52:23;8.40;;;3.63;;
25091;SDS011;13082;52.374;4.946;2022-08-21T06:54:49;7.13;;;3.47;;
25091;SDS011;13082;52.374;4.946;2022-08-21T06:57:14;14.17;;;3.83;;
25091;SDS011;13082;52.374;4.946;2022-08-21T06:59:40;6.63;;;2.80;;
25091;SDS011;13082;52.374;4.946;2022-08-21T07:02:06;9.87;;;3.10;;
25091;SDS011;13082;52.374;4.946;2022-08-21T07:04:32;6.80;;;3.20;;
25091;SDS011;13082;52.374;4.946;2022-08-21T07:06:58;8.53;;;3.37;;
25091;SDS011;13082;52.374;4.946;2022-08-21T07:09:24;8.90;;;3.60;;
25091;SDS011;13082;52.374;4.946;2022-08-21T07:11:50;10.20;;;3.60;;
25091;SDS011;13082;52.374;4.946;2022-08-21T07:14:18;11.27;;;3.33;;
25091;SDS011;13082;52.374;4.946;2022-08-21T07:16:43;8.23;;;3.10;;
25091;SDS011;13082;52.374;4.946;2022-08-21T07:19:09;9.83;;;4.20;;
25091;SDS011;13082;52.374;4.946;2022-08-21T07:21:34;9.23;;;3.00;;
25091;SDS011;13082;52.374;4.946;2022-08-21T07:24:00;10.95;;;3.00;;
25091;SDS011;13082;52.374;4.946;2022-08-21T07:26:25;14.32;;;3.28;;
25091;SDS011;13082;52.374;4.946;2022-08-21T07:28:51;6.68;;;3.22;;
25091;SDS011;13082;52.374;4.946;2022-08-21T07:31:18;10.82;;;3.55;;
25091;SDS011;13082;52.374;4.946;2022-08-21T07:33:45;6.05;;;3.35;;
25091;SDS011;13082;52.374;4.946;2022-08-21T07:36:11;9.00;;;3.17;;
25091;SDS011;13082;52.374;4.946;2022-08-21T07:38:37;12.48;;;3.70;;
25091;SDS011;13082;52.374;4.946;2022-08-21T07:41:06;6.20;;;3.03;;
25091;SDS011;13082;52.374;4.946;2022-08-21T07:43:37;9.15;;;2.85;;
25091;SDS011;13082;52.374;4.946;2022-08-21T07:46:03;5.78;;;2.97;;
25091;SDS011;13082;52.374;4.946;2022-08-21T07:48:29;7.15;;;2.97;;
25091;SDS011;13082;52.374;4.946;2022-08-21T07:50:54;10.77;;;4.00;;
25091;SDS011;13082;52.374;4.946;2022-08-21T07:53:20;10.05;;;3.70;;
25091;SDS011;13082;52.374;4.946;2022-08-21T07:55:46;8.25;;;3.47;;
25091;SDS011;13082;52.374;4.946;2022-08-21T07:58:12;6.10;;;3.35;;
25091;SDS011;13082;52.374;4.946;2022-08-21T08:00:38;7.40;;;3.53;;
25091;SDS011;13082;52.374;4.946;2022-08-21T08:03:05;7.18;;;3.33;;
25091;SDS011;13082;52.374;4.946;2022-08-21T08:05:31;11.05;;;3.83;;
25091;SDS011;13082;52.374;4.946;2022-08-21T08:07:57;8.10;;;3.78;;
25091;SDS011;13082;52.374;4.946;2022-08-21T08:10:23;11.85;;;3.33;;
25091;SDS011;13082;52.374;4.946;2022-08-21T08:12:49;9.45;;;3.95;;
25091;SDS011;13082;52.374;4.946;2022-08-21T08:15:17;9.73;;;3.90;;
25091;SDS011;13082;52.374;4.946;2022-08-21T08:17:45;10.05;;;2.83;;
25091;SDS011;13082;52.374;4.946;2022-08-21T08:20:11;11.70;;;3.22;;
25091;SDS011;13082;52.374;4.946;2022-08-21T08:22:38;8.63;;;3.05;;
25091;SDS011;13082;52.374;4.946;2022-08-21T08:25:05;11.10;;;3.85;;
25091;SDS011;13082;52.374;4.946;2022-08-21T08:27:32;10.90;;;3.22;;
25091;SDS011;13082;52.374;4.946;2022-08-21T08:29:58;9.75;;;3.63;;
25091;SDS011;13082;52.374;4.946;2022-08-21T08:32:24;10.00;;;3.58;;
25091;SDS011;13082;52.374;4.946;2022-08-21T08:34:50;9.73;;;3.20;;
25091;SDS011;13082;52.374;4.946;2022-08-21T08:37:17;11.40;;;3.40;;
25091;SDS011;13082;52.374;4.946;2022-08-21T08:39:43;5.72;;;3.05;;
25091;SDS011;13082;52.374;4.946;2022-08-21T08:42:13;11.80;;;2.95;;
25091;SDS011;13082;52.374;4.946;2022-08-21T08:45:02;6.90;;;3.22;;
25091;SDS011;13082;52.374;4.946;2022-08-21T08:47:45;5.53;;;2.35;;
25091;SDS011;13082;52.374;4.946;2022-08-21T08:50:33;13.55;;;2.88;;
25091;SDS011;13082;52.374;4.946;2022-08-21T08:53:12;8.35;;;2.78;;
25091;SDS011;13082;52.374;4.946;2022-08-21T08:55:48;10.90;;;2.42;;
25091;SDS011;13082;52.374;4.946;2022-08-21T08:58:24;6.40;;;2.20;;
25091;SDS011;13082;52.374;4.946;2022-08-21T09:00:55;6.75;;;2.60;;
25091;SDS011;13082;52.374;4.946;2022-08-21T09:03:22;9.48;;;2.47;;
25091;SDS011;13082;52.374;4.946;2022-08-21T09:05:59;5.35;;;2.90;;
25091;SDS011;13082;52.374;4.946;2022-08-21T09:11:29;8.20;;;2.42;;
25091;SDS011;13082;52.374;4.946;2022-08-21T09:22:25;9.07;;;2.60;;
25091;SDS011;13082;52.374;4.946;2022-08-21T09:27:47;7.50;;;2.00;;
25091;SDS011;13082;52.374;4.946;2022-08-21T09:30:13;7.05;;;2.70;;
25091;SDS011;13082;52.374;4.946;2022-08-21T09:32:40;6.32;;;2.38;;
25091;SDS011;13082;52.374;4.946;2022-08-21T09:45:39;5.65;;;2.15;;
25091;SDS011;13082;52.374;4.946;2022-08-21T09:50:37;5.47;;;1.77;;
25091;SDS011;13082;52.374;4.946;2022-08-21T09:53:03;5.53;;;2.58;;
25091;SDS011;13082;52.374;4.946;2022-08-21T09:55:34;6.70;;;1.77;;
25091;SDS011;13082;52.374;4.946;2022-08-21T09:58:29;5.55;;;2.20;;
25091;SDS011;13082;52.374;4.946;2022-08-21T10:01:00;7.43;;;2.03;;
25091;SDS011;13082;52.374;4.946;2022-08-21T10:03:27;9.35;;;2.30;;
25091;SDS011;13082;52.374;4.946;2022-08-21T10:05:58;5.40;;;1.77;;
25091;SDS011;13082;52.374;4.946;2022-08-21T10:08:30;9.57;;;2.42;;
25091;SDS011;13082;52.374;4.946;2022-08-21T10:10:57;8.27;;;2.88;;
25091;SDS011;13082;52.374;4.946;2022-08-21T10:13:50;4.47;;;1.50;;
25091;SDS011;13082;52.374;4.946;2022-08-21T10:16:29;10.70;;;1.85;;
25091;SDS011;13082;52.374;4.946;2022-08-21T10:21:42;4.40;;;1.63;;
25091;SDS011;13082;52.374;4.946;2022-08-21T10:24:26;4.38;;;1.90;;
25091;SDS011;13082;52.374;4.946;2022-08-21T10:35:07;5.57;;;1.80;;
25091;SDS011;13082;52.374;4.946;2022-08-21T10:49:18;4.82;;;1.52;;
25091;SDS011;13082;52.374;4.946;2022-08-21T10:54:47;4.78;;;1.60;;
25091;SDS011;13082;52.374;4.946;2022-08-21T10:57:24;4.88;;;1.48;;
25091;SDS011;13082;52.374;4.946;2022-08-21T11:00:03;4.70;;;2.00;;
25091;SDS011;13082;52.374;4.946;2022-08-21T11:05:28;5.10;;;1.40;;
25091;SDS011;13082;52.374;4.946;2022-08-21T11:08:08;5.05;;;1.40;;
25091;SDS011;13082;52.374;4.946;2022-08-21T11:11:04;4.55;;;1.52;;
25091;SDS011;13082;52.374;4.946;2022-08-21T11:19:20;8.27;;;1.48;;
25091;SDS011;13082;52.374;4.946;2022-08-21T11:22:18;2.92;;;1.23;;
25091;SDS011;13082;52.374;4.946;2022-08-21T11:24:54;3.17;;;1.48;;
25091;SDS011;13082;52.374;4.946;2022-08-21T11:27:33;2.70;;;1.20;;
25091;SDS011;13082;52.374;4.946;2022-08-21T11:30:05;3.17;;;1.42;;
25091;SDS011;13082;52.374;4.946;2022-08-21T11:36:02;6.68;;;1.63;;
25091;SDS011;13082;52.374;4.946;2022-08-21T11:46:40;4.63;;;1.25;;
25091;SDS011;13082;52.374;4.946;2022-08-21T11:52:23;3.45;;;1.17;;
25091;SDS011;13082;52.374;4.946;2022-08-21T11:55:09;2.22;;;1.15;;
25091;SDS011;13082;52.374;4.946;2022-08-21T12:00:48;5.85;;;1.30;;
25091;SDS011;13082;52.374;4.946;2022-08-21T12:03:22;4.20;;;1.13;;
25091;SDS011;13082;52.374;4.946;2022-08-21T12:05:52;2.38;;;1.40;;
25091;SDS011;13082;52.374;4.946;2022-08-21T12:08:27;2.10;;;1.20;;
25091;SDS011;13082;52.374;4.946;2022-08-21T12:13:56;4.57;;;1.20;;
25091;SDS011;13082;52.374;4.946;2022-08-21T12:16:36;7.03;;;1.67;;
25091;SDS011;13082;52.374;4.946;2022-08-21T12:19:11;5.90;;;1.77;;
25091;SDS011;13082;52.374;4.946;2022-08-21T12:22:06;4.03;;;1.50;;
25091;SDS011;13082;52.374;4.946;2022-08-21T12:24:41;2.17;;;1.30;;
25091;SDS011;13082;52.374;4.946;2022-08-21T12:27:19;7.18;;;1.55;;
25091;SDS011;13082;52.374;4.946;2022-08-21T12:30:04;3.28;;;1.15;;
25091;SDS011;13082;52.374;4.946;2022-08-21T12:32:43;3.58;;;1.30;;
25091;SDS011;13082;52.374;4.946;2022-08-21T12:35:32;2.75;;;1.40;;
25091;SDS011;13082;52.374;4.946;2022-08-21T12:40:45;4.28;;;1.30;;
25091;SDS011;13082;52.374;4.946;2022-08-21T12:43:21;3.25;;;1.00;;
25091;SDS011;13082;52.374;4.946;2022-08-21T12:46:01;3.58;;;1.33;;
25091;SDS011;13082;52.374;4.946;2022-08-21T12:51:38;7.13;;;1.52;;
25091;SDS011;13082;52.374;4.946;2022-08-21T12:54:10;6.68;;;1.88;;
25091;SDS011;13082;52.374;4.946;2022-08-21T12:56:54;2.85;;;1.48;;
25091;SDS011;13082;52.374;4.946;2022-08-21T12:59:21;5.25;;;1.45;;
25091;SDS011;13082;52.374;4.946;2022-08-21T13:01:48;4.60;;;1.40;;
25091;SDS011;13082;52.374;4.946;2022-08-21T13:04:22;4.50;;;1.30;;
25091;SDS011;13082;52.374;4.946;2022-08-21T13:06:58;6.07;;;1.48;;
25091;SDS011;13082;52.374;4.946;2022-08-21T13:09:26;9.77;;;1.92;;
25091;SDS011;13082;52.374;4.946;2022-08-21T13:11:54;3.30;;;2.03;;
25091;SDS011;13082;52.374;4.946;2022-08-21T13:14:29;3.67;;;1.33;;
25091;SDS011;13082;52.374;4.946;2022-08-21T13:16:59;8.27;;;1.40;;
25091;SDS011;13082;52.374;4.946;2022-08-21T13:19:28;5.40;;;1.75;;
25091;SDS011;13082;52.374;4.946;2022-08-21T13:21:55;3.95;;;1.40;;
25091;SDS011;13082;52.374;4.946;2022-08-21T13:24:23;3.45;;;1.13;;
25091;SDS011;13082;52.374;4.946;2022-08-21T13:26:49;5.72;;;1.48;;
25091;SDS011;13082;52.374;4.946;2022-08-21T13:29:16;3.63;;;1.33;;
25091;SDS011;13082;52.374;4.946;2022-08-21T13:31:49;3.35;;;1.50;;
25091;SDS011;13082;52.374;4.946;2022-08-21T13:34:18;4.13;;;1.48;;
25091;SDS011;13082;52.374;4.946;2022-08-21T13:36:50;5.47;;;1.58;;
25091;SDS011;13082;52.374;4.946;2022-08-21T13:39:19;4.30;;;1.48;;
25091;SDS011;13082;52.374;4.946;2022-08-21T13:41:46;5.57;;;2.20;;
25091;SDS011;13082;52.374;4.946;2022-08-21T13:44:18;2.40;;;1.73;;
25091;SDS011;13082;52.374;4.946;2022-08-21T13:46:47;6.28;;;1.60;;
25091;SDS011;13082;52.374;4.946;2022-08-21T13:49:17;6.15;;;1.80;;
25091;SDS011;13082;52.374;4.946;2022-08-21T13:51:45;2.50;;;1.20;;
25091;SDS011;13082;52.374;4.946;2022-08-21T13:54:23;3.88;;;1.60;;
25091;SDS011;13082;52.374;4.946;2022-08-21T13:56:53;8.43;;;2.70;;
25091;SDS011;13082;52.374;4.946;2022-08-21T13:59:27;6.82;;;1.58;;
25091;SDS011;13082;52.374;4.946;2022-08-21T14:02:01;6.32;;;1.60;;
25091;SDS011;13082;52.374;4.946;2022-08-21T14:04:38;8.35;;;2.00;;
25091;SDS011;13082;52.374;4.946;2022-08-21T14:07:19;2.92;;;1.60;;
25091;SDS011;13082;52.374;4.946;2022-08-21T14:10:07;5.55;;;1.17;;
25091;SDS011;13082;52.374;4.946;2022-08-21T14:12:50;6.55;;;1.60;;
25091;SDS011;13082;52.374;4.946;2022-08-21T14:15:26;3.92;;;1.50;;
25091;SDS011;13082;52.374;4.946;2022-08-21T14:17:54;2.42;;;1.42;;
25091;SDS011;13082;52.374;4.946;2022-08-21T14:20:33;6.30;;;1.63;;
25091;SDS011;13082;52.374;4.946;2022-08-21T14:23:00;4.93;;;1.60;;
25091;SDS011;13082;52.374;4.946;2022-08-21T14:25:36;4.10;;;1.75;;
25091;SDS011;13082;52.374;4.946;2022-08-21T14:30:59;3.38;;;1.30;;
25091;SDS011;13082;52.374;4.946;2022-08-21T14:33:37;6.13;;;2.03;;
25091;SDS011;13082;52.374;4.946;2022-08-21T14:36:03;4.18;;;1.63;;
25091;SDS011;13082;52.374;4.946;2022-08-21T14:38:29;3.17;;;1.42;;
25091;SDS011;13082;52.374;4.946;2022-08-21T14:40:57;3.55;;;1.30;;
25091;SDS011;13082;52.374;4.946;2022-08-21T14:43:29;7.82;;;1.83;;
25091;SDS011;13082;52.374;4.946;2022-08-21T14:45:56;4.57;;;1.55;;
25091;SDS011;13082;52.374;4.946;2022-08-21T14:48:22;3.08;;;1.50;;
25091;SDS011;13082;52.374;4.946;2022-08-21T14:50:47;7.53;;;1.70;;
25091;SDS011;13082;52.374;4.946;2022-08-21T14:53:13;2.25;;;1.33;;
25091;SDS011;13082;52.374;4.946;2022-08-21T14:55:39;6.60;;;1.42;;
25091;SDS011;13082;52.374;4.946;2022-08-21T14:58:24;3.22;;;1.50;;
25091;SDS011;13082;52.374;4.946;2022-08-21T15:00:50;4.25;;;1.83;;
25091;SDS011;13082;52.374;4.946;2022-08-21T15:03:17;5.78;;;1.67;;
25091;SDS011;13082;52.374;4.946;2022-08-21T15:05:43;6.47;;;1.55;;
25091;SDS011;13082;52.374;4.946;2022-08-21T15:08:10;4.72;;;1.70;;
25091;SDS011;13082;52.374;4.946;2022-08-21T15:10:35;4.50;;;1.77;;
25091;SDS011;13082;52.374;4.946;2022-08-21T15:13:01;7.90;;;1.80;;
25091;SDS011;13082;52.374;4.946;2022-08-21T15:15:29;4.30;;;1.48;;
25091;SDS011;13082;52.374;4.946;2022-08-21T15:18:00;4.65;;;1.63;;
25091;SDS011;13082;52.374;4.946;2022-08-21T15:20:26;3.63;;;1.30;;
25091;SDS011;13082;52.374;4.946;2022-08-21T15:22:51;8.30;;;2.85;;
25091;SDS011;13082;52.374;4.946;2022-08-21T15:25:17;3.53;;;1.30;;
25091;SDS011;13082;52.374;4.946;2022-08-21T15:27:43;4.95;;;1.40;;
25091;SDS011;13082;52.374;4.946;2022-08-21T15:30:09;5.28;;;1.90;;
25091;SDS011;13082;52.374;4.946;2022-08-21T15:32:35;11.13;;;1.95;;
25091;SDS011;13082;52.374;4.946;2022-08-21T15:35:00;3.40;;;1.42;;
25091;SDS011;13082;52.374;4.946;2022-08-21T15:37:27;3.72;;;1.52;;
25091;SDS011;13082;52.374;4.946;2022-08-21T15:39:53;4.63;;;1.38;;
25091;SDS011;13082;52.374;4.946;2022-08-21T15:42:19;5.07;;;2.38;;
25091;SDS011;13082;52.374;4.946;2022-08-21T15:44:46;3.17;;;1.40;;
25091;SDS011;13082;52.374;4.946;2022-08-21T15:47:14;4.53;;;1.75;;
25091;SDS011;13082;52.374;4.946;2022-08-21T15:49:42;5.07;;;1.60;;
25091;SDS011;13082;52.374;4.946;2022-08-21T15:52:10;5.55;;;1.30;;
25091;SDS011;13082;52.374;4.946;2022-08-21T15:54:37;9.02;;;1.55;;
25091;SDS011;13082;52.374;4.946;2022-08-21T15:57:03;2.15;;;1.20;;
25091;SDS011;13082;52.374;4.946;2022-08-21T15:59:29;3.42;;;1.10;;
25091;SDS011;13082;52.374;4.946;2022-08-21T16:02:04;6.28;;;1.42;;
25091;SDS011;13082;52.374;4.946;2022-08-21T16:04:30;2.88;;;1.30;;
25091;SDS011;13082;52.374;4.946;2022-08-21T16:06:55;5.63;;;1.40;;
25091;SDS011;13082;52.374;4.946;2022-08-21T16:09:21;2.72;;;1.38;;
25091;SDS011;13082;52.374;4.946;2022-08-21T16:11:47;4.85;;;1.55;;
25091;SDS011;13082;52.374;4.946;2022-08-21T16:14:14;2.53;;;1.73;;
25091;SDS011;13082;52.374;4.946;2022-08-21T16:16:41;1.83;;;1.10;;
25091;SDS011;13082;52.374;4.946;2022-08-21T16:19:07;4.55;;;1.75;;
25091;SDS011;13082;52.374;4.946;2022-08-21T16:21:35;6.07;;;1.73;;
25091;SDS011;13082;52.374;4.946;2022-08-21T16:24:01;5.45;;;1.60;;
25091;SDS011;13082;52.374;4.946;2022-08-21T16:26:26;9.57;;;1.60;;